Strona główna
METAR-TAF:

METAR-TAF

Lotnisko :

Port lotniczy Mandalaj

Mandalaj, Mjanma

Szerokość geograficzna: 21-59N, Długość geograficzna: 096-06E, wysokość: 74 m

Aktualna obserwacja pogody

Raport powstał 1 godzina i 26 minut temu, godzina 17:30 UTC
Cisza
Temperatura 13°C
Wilgotność 88%
Ciśnienie 1014 hPa
Widzialność: 6000 m
Mało chmury na wysokości 2000 ft
zmętnienie

METAR: VYMD 231730Z 00000KT 6000 HZ FEW020 13/11 Q1014

czas: 01:26 (18:56 UTC)

Prognoza

Raport powstał 1 godzina i 56 minut temu, godzina 17:00 UTC
Prognoza ważna od 23 godzina 18 UTC do 24 godzina 18 UTC
Wiatr 3 kt od północ
Widzialność: 6000 m
Mało chmury na wysokości 2000 ft
Przejściowo
od 23 godzina 18 UTC do 23 godzina 24 UTC
Wiatr 4 kt od północny zachód
Widzialność: 5000 m
zmętnienie

TAF: VYMD 231700Z 2318/2418 36003KT 6000 FEW020 TEMPO 2318/2324 32004KT 5000 HZ

Obserwacja i prognoza pogody dla ponad 4000 lotnisk (raport METAR i TAF).

Dostępne stacje oznaczono żółtymi i czerwonymi punktami na mapie.

Najedź kursorem aby zobaczyć nazwę stacji.

Kliknij aby zobaczyć obserwacje i prognozy pogody.

Aby zmienić mapę: kliknij na zielony przycisk z czarnym krzyżykiem, aby powiększyć; na zielony przycisk z myślnikiem, aby pomniejszyć; na zielone strzałki, aby przejść do map sąsiednich.


METAR-TAF: